sensor_id;sensor_type;location;lat;lon;timestamp;P1;durP1;ratioP1;P2;durP2;ratioP2
21769;SDS011;11046;49.558;8.674;2023-03-31T00:02:20;5.87;;;1.10;;
21769;SDS011;11046;49.558;8.674;2023-03-31T00:05:21;9.37;;;1.70;;
21769;SDS011;11046;49.558;8.674;2023-03-31T00:08:24;7.80;;;1.27;;
21769;SDS011;11046;49.558;8.674;2023-03-31T00:11:28;6.57;;;1.53;;
21769;SDS011;11046;49.558;8.674;2023-03-31T00:14:29;7.17;;;1.73;;
21769;SDS011;11046;49.558;8.674;2023-03-31T00:17:30;11.10;;;1.70;;
21769;SDS011;11046;49.558;8.674;2023-03-31T00:20:32;9.43;;;1.80;;
21769;SDS011;11046;49.558;8.674;2023-03-31T00:23:36;9.37;;;1.73;;
21769;SDS011;11046;49.558;8.674;2023-03-31T00:26:37;7.23;;;1.50;;
21769;SDS011;11046;49.558;8.674;2023-03-31T00:29:38;4.27;;;1.80;;
21769;SDS011;11046;49.558;8.674;2023-03-31T00:32:40;11.97;;;2.20;;
21769;SDS011;11046;49.558;8.674;2023-03-31T00:35:41;5.10;;;1.87;;
21769;SDS011;11046;49.558;8.674;2023-03-31T00:38:42;8.03;;;1.77;;
21769;SDS011;11046;49.558;8.674;2023-03-31T00:41:45;6.60;;;1.53;;
21769;SDS011;11046;49.558;8.674;2023-03-31T00:48:12;9.80;;;1.93;;
21769;SDS011;11046;49.558;8.674;2023-03-31T00:51:17;4.73;;;1.53;;
21769;SDS011;11046;49.558;8.674;2023-03-31T00:54:19;10.20;;;2.33;;
21769;SDS011;11046;49.558;8.674;2023-03-31T00:57:22;6.87;;;1.80;;
21769;SDS011;11046;49.558;8.674;2023-03-31T01:00:27;5.87;;;1.60;;
21769;SDS011;11046;49.558;8.674;2023-03-31T01:03:30;8.25;;;1.75;;
21769;SDS011;11046;49.558;8.674;2023-03-31T01:06:32;13.77;;;2.17;;
21769;SDS011;11046;49.558;8.674;2023-03-31T01:09:33;9.10;;;1.77;;
21769;SDS011;11046;49.558;8.674;2023-03-31T01:12:35;10.53;;;2.10;;
21769;SDS011;11046;49.558;8.674;2023-03-31T01:15:39;6.47;;;1.52;;
21769;SDS011;11046;49.558;8.674;2023-03-31T01:18:41;8.17;;;1.80;;
21769;SDS011;11046;49.558;8.674;2023-03-31T01:21:54;8.37;;;1.90;;
21769;SDS011;11046;49.558;8.674;2023-03-31T01:25:14;6.00;;;1.67;;
21769;SDS011;11046;49.558;8.674;2023-03-31T01:28:26;7.70;;;1.90;;
21769;SDS011;11046;49.558;8.674;2023-03-31T01:31:41;9.17;;;2.13;;
21769;SDS011;11046;49.558;8.674;2023-03-31T01:35:09;5.93;;;1.55;;
21769;SDS011;11046;49.558;8.674;2023-03-31T01:41:50;10.70;;;1.90;;
21769;SDS011;11046;49.558;8.674;2023-03-31T01:52:05;7.63;;;1.80;;
21769;SDS011;11046;49.558;8.674;2023-03-31T01:55:19;7.83;;;1.73;;
21769;SDS011;11046;49.558;8.674;2023-03-31T01:59:01;9.30;;;1.67;;
21769;SDS011;11046;49.558;8.674;2023-03-31T02:02:11;4.63;;;1.70;;
21769;SDS011;11046;49.558;8.674;2023-03-31T02:05:20;8.03;;;1.70;;
21769;SDS011;11046;49.558;8.674;2023-03-31T02:08:26;11.43;;;1.60;;
21769;SDS011;11046;49.558;8.674;2023-03-31T02:11:32;10.30;;;1.83;;
21769;SDS011;11046;49.558;8.674;2023-03-31T02:14:34;7.40;;;1.80;;
21769;SDS011;11046;49.558;8.674;2023-03-31T02:17:40;5.97;;;1.50;;
21769;SDS011;11046;49.558;8.674;2023-03-31T02:20:48;6.13;;;1.40;;
21769;SDS011;11046;49.558;8.674;2023-03-31T02:23:50;6.33;;;1.40;;
21769;SDS011;11046;49.558;8.674;2023-03-31T02:26:57;10.40;;;1.87;;
21769;SDS011;11046;49.558;8.674;2023-03-31T02:30:17;9.13;;;1.60;;
21769;SDS011;11046;49.558;8.674;2023-03-31T02:33:18;4.10;;;1.10;;
21769;SDS011;11046;49.558;8.674;2023-03-31T02:36:18;8.53;;;1.70;;
21769;SDS011;11046;49.558;8.674;2023-03-31T02:39:22;6.67;;;1.70;;
21769;SDS011;11046;49.558;8.674;2023-03-31T02:42:27;7.90;;;1.77;;
21769;SDS011;11046;49.558;8.674;2023-03-31T02:48:48;9.73;;;2.03;;
21769;SDS011;11046;49.558;8.674;2023-03-31T02:52:00;9.13;;;2.00;;
21769;SDS011;11046;49.558;8.674;2023-03-31T02:58:48;6.77;;;1.77;;
21769;SDS011;11046;49.558;8.674;2023-03-31T03:02:24;6.33;;;1.60;;
21769;SDS011;11046;49.558;8.674;2023-03-31T03:05:37;6.27;;;1.57;;
21769;SDS011;11046;49.558;8.674;2023-03-31T03:13:07;7.70;;;1.60;;
21769;SDS011;11046;49.558;8.674;2023-03-31T03:16:18;8.43;;;1.40;;
21769;SDS011;11046;49.558;8.674;2023-03-31T03:19:23;6.27;;;1.50;;
21769;SDS011;11046;49.558;8.674;2023-03-31T03:22:24;5.33;;;1.30;;
21769;SDS011;11046;49.558;8.674;2023-03-31T03:25:25;5.90;;;1.27;;
21769;SDS011;11046;49.558;8.674;2023-03-31T03:28:25;4.37;;;1.27;;
21769;SDS011;11046;49.558;8.674;2023-03-31T03:31:26;7.03;;;1.60;;
21769;SDS011;11046;49.558;8.674;2023-03-31T03:34:27;8.23;;;1.40;;
21769;SDS011;11046;49.558;8.674;2023-03-31T03:37:27;4.83;;;1.40;;
21769;SDS011;11046;49.558;8.674;2023-03-31T03:40:28;6.33;;;1.03;;
21769;SDS011;11046;49.558;8.674;2023-03-31T03:43:29;9.30;;;1.80;;
21769;SDS011;11046;49.558;8.674;2023-03-31T03:46:30;5.73;;;1.10;;
21769;SDS011;11046;49.558;8.674;2023-03-31T03:49:31;4.23;;;1.27;;
21769;SDS011;11046;49.558;8.674;2023-03-31T03:52:31;4.00;;;1.40;;
21769;SDS011;11046;49.558;8.674;2023-03-31T03:55:32;5.20;;;1.50;;
21769;SDS011;11046;49.558;8.674;2023-03-31T03:58:33;5.90;;;1.47;;
21769;SDS011;11046;49.558;8.674;2023-03-31T04:01:33;7.43;;;1.37;;
21769;SDS011;11046;49.558;8.674;2023-03-31T04:04:35;7.73;;;1.53;;
21769;SDS011;11046;49.558;8.674;2023-03-31T04:07:35;7.90;;;1.67;;
21769;SDS011;11046;49.558;8.674;2023-03-31T04:10:36;4.30;;;1.30;;
21769;SDS011;11046;49.558;8.674;2023-03-31T04:13:36;6.73;;;1.30;;
21769;SDS011;11046;49.558;8.674;2023-03-31T04:16:37;4.07;;;1.67;;
21769;SDS011;11046;49.558;8.674;2023-03-31T04:19:39;5.70;;;1.50;;
21769;SDS011;11046;49.558;8.674;2023-03-31T04:22:41;7.43;;;1.50;;
21769;SDS011;11046;49.558;8.674;2023-03-31T04:25:41;7.53;;;1.63;;
21769;SDS011;11046;49.558;8.674;2023-03-31T04:28:45;8.50;;;1.40;;
21769;SDS011;11046;49.558;8.674;2023-03-31T04:31:49;7.83;;;1.80;;
21769;SDS011;11046;49.558;8.674;2023-03-31T04:34:51;7.80;;;1.70;;
21769;SDS011;11046;49.558;8.674;2023-03-31T04:38:01;5.00;;;1.50;;
21769;SDS011;11046;49.558;8.674;2023-03-31T04:41:02;3.40;;;1.50;;
21769;SDS011;11046;49.558;8.674;2023-03-31T04:44:02;6.57;;;1.70;;
21769;SDS011;11046;49.558;8.674;2023-03-31T04:47:03;4.97;;;1.50;;
21769;SDS011;11046;49.558;8.674;2023-03-31T04:50:06;7.33;;;1.60;;
21769;SDS011;11046;49.558;8.674;2023-03-31T04:53:07;5.60;;;1.67;;
21769;SDS011;11046;49.558;8.674;2023-03-31T04:56:07;6.67;;;1.87;;
21769;SDS011;11046;49.558;8.674;2023-03-31T04:59:08;9.03;;;2.10;;
21769;SDS011;11046;49.558;8.674;2023-03-31T05:02:08;7.00;;;1.70;;
21769;SDS011;11046;49.558;8.674;2023-03-31T05:05:09;5.50;;;1.70;;
21769;SDS011;11046;49.558;8.674;2023-03-31T05:08:10;5.47;;;1.67;;
21769;SDS011;11046;49.558;8.674;2023-03-31T05:11:10;9.23;;;1.87;;
21769;SDS011;11046;49.558;8.674;2023-03-31T05:14:11;6.67;;;1.90;;
21769;SDS011;11046;49.558;8.674;2023-03-31T05:17:12;14.07;;;2.37;;
21769;SDS011;11046;49.558;8.674;2023-03-31T05:20:12;7.93;;;2.20;;
21769;SDS011;11046;49.558;8.674;2023-03-31T05:23:13;4.37;;;2.23;;
21769;SDS011;11046;49.558;8.674;2023-03-31T05:26:14;7.90;;;2.67;;
21769;SDS011;11046;49.558;8.674;2023-03-31T05:29:15;7.57;;;2.93;;
21769;SDS011;11046;49.558;8.674;2023-03-31T05:32:16;9.93;;;3.03;;
21769;SDS011;11046;49.558;8.674;2023-03-31T05:35:16;9.20;;;3.30;;
21769;SDS011;11046;49.558;8.674;2023-03-31T05:38:17;9.67;;;2.80;;
21769;SDS011;11046;49.558;8.674;2023-03-31T05:41:18;12.47;;;2.93;;
21769;SDS011;11046;49.558;8.674;2023-03-31T05:44:18;8.10;;;3.40;;
21769;SDS011;11046;49.558;8.674;2023-03-31T05:47:19;7.17;;;2.90;;
21769;SDS011;11046;49.558;8.674;2023-03-31T05:50:20;8.67;;;3.33;;
21769;SDS011;11046;49.558;8.674;2023-03-31T05:53:20;10.40;;;3.60;;
21769;SDS011;11046;49.558;8.674;2023-03-31T05:56:21;13.37;;;3.73;;
21769;SDS011;11046;49.558;8.674;2023-03-31T05:59:22;7.97;;;3.93;;
21769;SDS011;11046;49.558;8.674;2023-03-31T06:02:22;10.43;;;3.80;;
21769;SDS011;11046;49.558;8.674;2023-03-31T06:05:23;6.33;;;3.30;;
21769;SDS011;11046;49.558;8.674;2023-03-31T06:08:25;11.40;;;4.23;;
21769;SDS011;11046;49.558;8.674;2023-03-31T06:11:27;11.93;;;4.63;;
21769;SDS011;11046;49.558;8.674;2023-03-31T06:14:27;11.23;;;4.33;;
21769;SDS011;11046;49.558;8.674;2023-03-31T06:17:28;7.53;;;4.20;;
21769;SDS011;11046;49.558;8.674;2023-03-31T06:20:28;11.67;;;5.10;;
21769;SDS011;11046;49.558;8.674;2023-03-31T06:23:29;13.80;;;5.50;;
21769;SDS011;11046;49.558;8.674;2023-03-31T06:26:30;13.77;;;4.83;;
21769;SDS011;11046;49.558;8.674;2023-03-31T06:29:30;14.00;;;5.13;;
21769;SDS011;11046;49.558;8.674;2023-03-31T06:32:31;14.97;;;5.50;;
21769;SDS011;11046;49.558;8.674;2023-03-31T06:35:32;13.60;;;5.40;;
21769;SDS011;11046;49.558;8.674;2023-03-31T06:38:33;10.00;;;5.23;;
21769;SDS011;11046;49.558;8.674;2023-03-31T06:41:34;10.50;;;5.20;;
21769;SDS011;11046;49.558;8.674;2023-03-31T06:44:35;11.60;;;5.07;;
21769;SDS011;11046;49.558;8.674;2023-03-31T06:47:36;9.70;;;4.57;;
21769;SDS011;11046;49.558;8.674;2023-03-31T06:50:37;10.93;;;5.20;;
21769;SDS011;11046;49.558;8.674;2023-03-31T06:53:40;12.70;;;5.67;;
21769;SDS011;11046;49.558;8.674;2023-03-31T06:56:41;10.63;;;5.47;;
21769;SDS011;11046;49.558;8.674;2023-03-31T06:59:41;10.20;;;5.40;;
21769;SDS011;11046;49.558;8.674;2023-03-31T07:02:42;15.30;;;5.30;;
21769;SDS011;11046;49.558;8.674;2023-03-31T07:05:49;13.50;;;5.40;;
21769;SDS011;11046;49.558;8.674;2023-03-31T07:08:54;11.57;;;5.50;;
21769;SDS011;11046;49.558;8.674;2023-03-31T07:11:54;9.77;;;5.33;;
21769;SDS011;11046;49.558;8.674;2023-03-31T07:14:55;14.17;;;5.20;;
21769;SDS011;11046;49.558;8.674;2023-03-31T07:17:56;11.73;;;5.60;;
21769;SDS011;11046;49.558;8.674;2023-03-31T07:21:01;14.43;;;6.10;;
21769;SDS011;11046;49.558;8.674;2023-03-31T07:24:02;13.73;;;5.77;;
21769;SDS011;11046;49.558;8.674;2023-03-31T07:27:03;12.87;;;5.30;;
21769;SDS011;11046;49.558;8.674;2023-03-31T07:30:07;11.53;;;5.20;;
21769;SDS011;11046;49.558;8.674;2023-03-31T07:33:10;15.70;;;4.90;;
21769;SDS011;11046;49.558;8.674;2023-03-31T07:36:10;14.70;;;5.23;;
21769;SDS011;11046;49.558;8.674;2023-03-31T07:39:11;10.13;;;5.80;;
21769;SDS011;11046;49.558;8.674;2023-03-31T07:42:11;13.30;;;4.97;;
21769;SDS011;11046;49.558;8.674;2023-03-31T07:45:12;11.37;;;4.93;;
21769;SDS011;11046;49.558;8.674;2023-03-31T07:48:13;11.47;;;4.97;;
21769;SDS011;11046;49.558;8.674;2023-03-31T07:51:14;13.10;;;5.10;;
21769;SDS011;11046;49.558;8.674;2023-03-31T07:54:17;10.83;;;4.57;;
21769;SDS011;11046;49.558;8.674;2023-03-31T07:57:17;11.00;;;5.30;;
21769;SDS011;11046;49.558;8.674;2023-03-31T08:00:18;12.17;;;5.37;;
21769;SDS011;11046;49.558;8.674;2023-03-31T08:03:19;10.70;;;5.80;;
21769;SDS011;11046;49.558;8.674;2023-03-31T08:06:20;11.43;;;4.97;;
21769;SDS011;11046;49.558;8.674;2023-03-31T08:09:22;9.63;;;4.70;;
21769;SDS011;11046;49.558;8.674;2023-03-31T08:12:23;12.80;;;5.23;;
21769;SDS011;11046;49.558;8.674;2023-03-31T08:15:24;11.60;;;5.20;;
21769;SDS011;11046;49.558;8.674;2023-03-31T08:18:24;15.90;;;5.13;;
21769;SDS011;11046;49.558;8.674;2023-03-31T08:21:25;11.50;;;4.97;;
21769;SDS011;11046;49.558;8.674;2023-03-31T08:24:27;11.20;;;4.67;;
21769;SDS011;11046;49.558;8.674;2023-03-31T08:27:27;7.83;;;4.30;;
21769;SDS011;11046;49.558;8.674;2023-03-31T08:30:32;10.77;;;4.10;;
21769;SDS011;11046;49.558;8.674;2023-03-31T08:33:33;9.00;;;4.10;;
21769;SDS011;11046;49.558;8.674;2023-03-31T08:36:33;10.17;;;4.50;;
21769;SDS011;11046;49.558;8.674;2023-03-31T08:39:35;11.97;;;4.67;;
21769;SDS011;11046;49.558;8.674;2023-03-31T08:42:45;11.63;;;4.40;;
21769;SDS011;11046;49.558;8.674;2023-03-31T08:45:49;9.57;;;4.30;;
21769;SDS011;11046;49.558;8.674;2023-03-31T08:48:51;10.57;;;4.60;;
21769;SDS011;11046;49.558;8.674;2023-03-31T08:51:56;11.80;;;4.80;;
21769;SDS011;11046;49.558;8.674;2023-03-31T08:54:59;15.43;;;5.03;;
21769;SDS011;11046;49.558;8.674;2023-03-31T09:04:47;17.13;;;4.93;;
21769;SDS011;11046;49.558;8.674;2023-03-31T09:08:28;11.07;;;5.30;;
21769;SDS011;11046;49.558;8.674;2023-03-31T09:11:39;18.63;;;6.57;;
21769;SDS011;11046;49.558;8.674;2023-03-31T09:18:12;16.10;;;5.77;;
21769;SDS011;11046;49.558;8.674;2023-03-31T09:21:25;16.20;;;6.10;;
21769;SDS011;11046;49.558;8.674;2023-03-31T09:24:37;15.00;;;6.87;;
21769;SDS011;11046;49.558;8.674;2023-03-31T09:27:57;16.60;;;6.53;;
21769;SDS011;11046;49.558;8.674;2023-03-31T09:31:07;4.13;;;2.27;;
21769;SDS011;11046;49.558;8.674;2023-03-31T09:34:26;7.53;;;2.40;;
21769;SDS011;11046;49.558;8.674;2023-03-31T09:37:30;5.37;;;2.00;;
21769;SDS011;11046;49.558;8.674;2023-03-31T09:40:32;5.37;;;1.77;;
21769;SDS011;11046;49.558;8.674;2023-03-31T09:43:33;6.53;;;1.63;;
21769;SDS011;11046;49.558;8.674;2023-03-31T09:46:40;5.70;;;1.70;;
21769;SDS011;11046;49.558;8.674;2023-03-31T09:49:40;8.33;;;1.87;;
21769;SDS011;11046;49.558;8.674;2023-03-31T09:52:48;10.47;;;2.30;;
21769;SDS011;11046;49.558;8.674;2023-03-31T09:55:54;6.77;;;2.17;;
21769;SDS011;11046;49.558;8.674;2023-03-31T09:59:01;6.20;;;1.80;;
21769;SDS011;11046;49.558;8.674;2023-03-31T10:02:19;12.70;;;2.23;;
21769;SDS011;11046;49.558;8.674;2023-03-31T10:05:36;9.43;;;2.10;;
21769;SDS011;11046;49.558;8.674;2023-03-31T10:11:52;9.37;;;2.60;;
21769;SDS011;11046;49.558;8.674;2023-03-31T10:15:01;7.40;;;2.23;;
21769;SDS011;11046;49.558;8.674;2023-03-31T10:18:18;11.63;;;2.50;;
21769;SDS011;11046;49.558;8.674;2023-03-31T10:21:22;10.27;;;2.30;;
21769;SDS011;11046;49.558;8.674;2023-03-31T10:24:25;5.20;;;2.00;;
21769;SDS011;11046;49.558;8.674;2023-03-31T10:27:34;9.83;;;2.70;;
21769;SDS011;11046;49.558;8.674;2023-03-31T10:30:41;7.63;;;2.33;;
21769;SDS011;11046;49.558;8.674;2023-03-31T10:33:56;9.37;;;2.63;;
21769;SDS011;11046;49.558;8.674;2023-03-31T10:36:58;9.57;;;2.37;;
21769;SDS011;11046;49.558;8.674;2023-03-31T10:40:03;5.50;;;2.10;;
21769;SDS011;11046;49.558;8.674;2023-03-31T10:43:14;4.63;;;1.90;;
21769;SDS011;11046;49.558;8.674;2023-03-31T10:46:17;7.00;;;2.30;;
21769;SDS011;11046;49.558;8.674;2023-03-31T10:52:23;6.77;;;1.97;;
21769;SDS011;11046;49.558;8.674;2023-03-31T10:55:27;8.03;;;2.30;;
21769;SDS011;11046;49.558;8.674;2023-03-31T10:58:54;5.63;;;2.20;;
21769;SDS011;11046;49.558;8.674;2023-03-31T11:02:03;8.20;;;2.30;;
21769;SDS011;11046;49.558;8.674;2023-03-31T11:05:34;6.23;;;2.40;;
21769;SDS011;11046;49.558;8.674;2023-03-31T11:08:57;11.50;;;2.30;;
21769;SDS011;11046;49.558;8.674;2023-03-31T11:12:15;9.20;;;2.00;;
21769;SDS011;11046;49.558;8.674;2023-03-31T11:25:51;4.00;;;1.57;;
21769;SDS011;11046;49.558;8.674;2023-03-31T11:42:33;9.57;;;1.20;;
21769;SDS011;11046;49.558;8.674;2023-03-31T11:45:45;11.23;;;2.40;;
21769;SDS011;11046;49.558;8.674;2023-03-31T11:49:09;6.07;;;1.40;;
21769;SDS011;11046;49.558;8.674;2023-03-31T11:52:24;5.07;;;1.13;;
21769;SDS011;11046;49.558;8.674;2023-03-31T11:55:33;6.77;;;1.27;;
21769;SDS011;11046;49.558;8.674;2023-03-31T11:58:37;6.30;;;1.58;;
21769;SDS011;11046;49.558;8.674;2023-03-31T12:01:47;3.05;;;0.82;;
21769;SDS011;11046;49.558;8.674;2023-03-31T12:05:00;7.72;;;1.65;;
21769;SDS011;11046;49.558;8.674;2023-03-31T12:08:17;2.47;;;1.00;;
21769;SDS011;11046;49.558;8.674;2023-03-31T12:11:30;2.00;;;1.00;;
21769;SDS011;11046;49.558;8.674;2023-03-31T12:17:43;4.50;;;1.38;;
21769;SDS011;11046;49.558;8.674;2023-03-31T12:20:53;9.90;;;2.20;;
21769;SDS011;11046;49.558;8.674;2023-03-31T12:23:56;7.43;;;1.98;;
21769;SDS011;11046;49.558;8.674;2023-03-31T12:27:00;11.80;;;2.00;;
21769;SDS011;11046;49.558;8.674;2023-03-31T12:30:28;10.93;;;2.03;;
21769;SDS011;11046;49.558;8.674;2023-03-31T12:33:35;8.43;;;2.42;;
21769;SDS011;11046;49.558;8.674;2023-03-31T12:57:21;2.45;;;0.70;;
21769;SDS011;11046;49.558;8.674;2023-03-31T13:00:24;3.10;;;0.88;;
21769;SDS011;11046;49.558;8.674;2023-03-31T13:09:37;4.00;;;1.10;;
21769;SDS011;11046;49.558;8.674;2023-03-31T13:12:55;4.97;;;1.20;;
21769;SDS011;11046;49.558;8.674;2023-03-31T13:16:05;2.50;;;0.95;;
21769;SDS011;11046;49.558;8.674;2023-03-31T13:19:06;6.20;;;1.00;;
21769;SDS011;11046;49.558;8.674;2023-03-31T13:22:27;2.70;;;0.70;;
21769;SDS011;11046;49.558;8.674;2023-03-31T13:25:40;4.60;;;0.93;;
21769;SDS011;11046;49.558;8.674;2023-03-31T13:28:46;1.83;;;0.85;;
21769;SDS011;11046;49.558;8.674;2023-03-31T13:32:21;4.97;;;1.40;;
21769;SDS011;11046;49.558;8.674;2023-03-31T13:35:24;2.10;;;0.88;;
21769;SDS011;11046;49.558;8.674;2023-03-31T13:38:31;6.28;;;1.15;;
21769;SDS011;11046;49.558;8.674;2023-03-31T13:48:38;5.93;;;1.10;;
21769;SDS011;11046;49.558;8.674;2023-03-31T13:51:58;5.78;;;1.20;;
21769;SDS011;11046;49.558;8.674;2023-03-31T13:55:05;3.83;;;1.10;;
21769;SDS011;11046;49.558;8.674;2023-03-31T14:02:15;7.85;;;1.60;;
21769;SDS011;11046;49.558;8.674;2023-03-31T14:05:35;7.82;;;1.13;;
21769;SDS011;11046;49.558;8.674;2023-03-31T14:11:54;6.38;;;1.15;;
21769;SDS011;11046;49.558;8.674;2023-03-31T14:14:55;8.13;;;1.08;;
21769;SDS011;11046;49.558;8.674;2023-03-31T14:17:56;4.82;;;1.10;;
21769;SDS011;11046;49.558;8.674;2023-03-31T14:21:00;7.20;;;1.17;;
21769;SDS011;11046;49.558;8.674;2023-03-31T14:24:23;3.55;;;1.15;;
21769;SDS011;11046;49.558;8.674;2023-03-31T14:31:21;7.15;;;1.42;;
21769;SDS011;11046;49.558;8.674;2023-03-31T14:37:45;2.85;;;1.00;;
21769;SDS011;11046;49.558;8.674;2023-03-31T14:40:51;4.00;;;1.10;;
21769;SDS011;11046;49.558;8.674;2023-03-31T14:43:56;3.10;;;0.80;;
21769;SDS011;11046;49.558;8.674;2023-03-31T14:46:59;4.43;;;1.10;;
21769;SDS011;11046;49.558;8.674;2023-03-31T14:50:02;3.73;;;1.10;;
21769;SDS011;11046;49.558;8.674;2023-03-31T14:53:15;4.03;;;1.33;;
21769;SDS011;11046;49.558;8.674;2023-03-31T14:56:19;11.25;;;1.48;;
21769;SDS011;11046;49.558;8.674;2023-03-31T14:59:27;2.78;;;1.10;;
21769;SDS011;11046;49.558;8.674;2023-03-31T15:02:32;4.53;;;1.43;;
21769;SDS011;11046;49.558;8.674;2023-03-31T15:05:35;6.17;;;1.10;;
21769;SDS011;11046;49.558;8.674;2023-03-31T15:08:37;4.00;;;1.30;;
21769;SDS011;11046;49.558;8.674;2023-03-31T15:11:38;5.32;;;1.17;;
21769;SDS011;11046;49.558;8.674;2023-03-31T15:14:48;5.88;;;1.17;;
21769;SDS011;11046;49.558;8.674;2023-03-31T15:17:51;3.47;;;1.00;;
21769;SDS011;11046;49.558;8.674;2023-03-31T15:20:53;6.22;;;1.08;;
21769;SDS011;11046;49.558;8.674;2023-03-31T15:23:54;6.70;;;1.40;;
21769;SDS011;11046;49.558;8.674;2023-03-31T15:30:08;4.95;;;1.20;;
21769;SDS011;11046;49.558;8.674;2023-03-31T15:33:30;6.28;;;1.00;;
21769;SDS011;11046;49.558;8.674;2023-03-31T15:36:32;4.93;;;1.40;;
21769;SDS011;11046;49.558;8.674;2023-03-31T15:39:34;4.33;;;1.50;;
21769;SDS011;11046;49.558;8.674;2023-03-31T15:42:36;5.15;;;1.38;;
21769;SDS011;11046;49.558;8.674;2023-03-31T15:45:47;7.93;;;1.43;;
21769;SDS011;11046;49.558;8.674;2023-03-31T15:48:51;3.47;;;1.10;;
21769;SDS011;11046;49.558;8.674;2023-03-31T15:51:53;5.90;;;1.67;;
21769;SDS011;11046;49.558;8.674;2023-03-31T15:54:55;5.65;;;1.10;;
21769;SDS011;11046;49.558;8.674;2023-03-31T15:57:57;5.70;;;1.20;;
21769;SDS011;11046;49.558;8.674;2023-03-31T16:01:02;4.70;;;1.20;;
21769;SDS011;11046;49.558;8.674;2023-03-31T16:04:06;6.00;;;1.33;;
21769;SDS011;11046;49.558;8.674;2023-03-31T16:07:17;7.10;;;1.37;;
21769;SDS011;11046;49.558;8.674;2023-03-31T16:10:24;9.50;;;1.53;;
21769;SDS011;11046;49.558;8.674;2023-03-31T16:13:25;6.80;;;1.00;;
21769;SDS011;11046;49.558;8.674;2023-03-31T16:16:31;7.53;;;1.20;;
21769;SDS011;11046;49.558;8.674;2023-03-31T16:19:43;5.10;;;1.73;;
21769;SDS011;11046;49.558;8.674;2023-03-31T16:22:53;6.83;;;1.23;;
21769;SDS011;11046;49.558;8.674;2023-03-31T16:26:00;6.83;;;1.73;;
21769;SDS011;11046;49.558;8.674;2023-03-31T16:29:06;7.00;;;1.30;;
21769;SDS011;11046;49.558;8.674;2023-03-31T16:32:11;8.07;;;1.88;;
21769;SDS011;11046;49.558;8.674;2023-03-31T16:35:17;6.73;;;1.60;;
21769;SDS011;11046;49.558;8.674;2023-03-31T16:38:19;9.63;;;1.43;;
21769;SDS011;11046;49.558;8.674;2023-03-31T16:41:24;7.90;;;1.50;;
21769;SDS011;11046;49.558;8.674;2023-03-31T16:44:31;6.73;;;1.80;;
21769;SDS011;11046;49.558;8.674;2023-03-31T16:47:35;5.63;;;2.07;;
21769;SDS011;11046;49.558;8.674;2023-03-31T16:50:39;9.57;;;2.37;;
21769;SDS011;11046;49.558;8.674;2023-03-31T16:53:44;4.90;;;1.70;;
21769;SDS011;11046;49.558;8.674;2023-03-31T16:56:51;4.73;;;1.40;;
21769;SDS011;11046;49.558;8.674;2023-03-31T16:59:51;4.73;;;1.53;;
21769;SDS011;11046;49.558;8.674;2023-03-31T17:02:58;5.43;;;1.57;;
21769;SDS011;11046;49.558;8.674;2023-03-31T17:06:05;6.53;;;1.57;;
21769;SDS011;11046;49.558;8.674;2023-03-31T17:09:14;5.27;;;1.60;;
21769;SDS011;11046;49.558;8.674;2023-03-31T17:12:15;6.97;;;2.40;;
21769;SDS011;11046;49.558;8.674;2023-03-31T17:15:16;6.67;;;1.40;;
21769;SDS011;11046;49.558;8.674;2023-03-31T17:18:39;6.07;;;1.43;;
21769;SDS011;11046;49.558;8.674;2023-03-31T17:21:41;5.50;;;1.47;;
21769;SDS011;11046;49.558;8.674;2023-03-31T17:24:43;8.73;;;2.37;;
21769;SDS011;11046;49.558;8.674;2023-03-31T17:27:54;6.27;;;1.77;;
21769;SDS011;11046;49.558;8.674;2023-03-31T17:30:55;5.80;;;1.30;;
21769;SDS011;11046;49.558;8.674;2023-03-31T17:33:59;6.03;;;1.60;;
21769;SDS011;11046;49.558;8.674;2023-03-31T17:37:00;4.77;;;1.23;;
21769;SDS011;11046;49.558;8.674;2023-03-31T17:40:01;6.80;;;1.20;;
21769;SDS011;11046;49.558;8.674;2023-03-31T17:43:16;3.20;;;1.00;;
21769;SDS011;11046;49.558;8.674;2023-03-31T17:46:19;5.10;;;1.40;;
21769;SDS011;11046;49.558;8.674;2023-03-31T17:49:21;6.47;;;1.40;;
21769;SDS011;11046;49.558;8.674;2023-03-31T17:52:34;1.67;;;0.90;;
21769;SDS011;11046;49.558;8.674;2023-03-31T17:55:38;3.33;;;1.20;;
21769;SDS011;11046;49.558;8.674;2023-03-31T17:58:39;3.70;;;1.00;;
21769;SDS011;11046;49.558;8.674;2023-03-31T18:01:46;2.27;;;1.10;;
21769;SDS011;11046;49.558;8.674;2023-03-31T18:04:51;3.57;;;1.10;;
21769;SDS011;11046;49.558;8.674;2023-03-31T18:07:57;2.57;;;1.10;;
21769;SDS011;11046;49.558;8.674;2023-03-31T18:11:03;2.30;;;1.40;;
21769;SDS011;11046;49.558;8.674;2023-03-31T18:14:05;4.13;;;1.10;;
21769;SDS011;11046;49.558;8.674;2023-03-31T18:17:07;4.97;;;1.20;;
21769;SDS011;11046;49.558;8.674;2023-03-31T18:20:07;3.77;;;2.40;;
21769;SDS011;11046;49.558;8.674;2023-03-31T18:23:09;3.03;;;1.50;;
21769;SDS011;11046;49.558;8.674;2023-03-31T18:26:25;4.97;;;1.63;;
21769;SDS011;11046;49.558;8.674;2023-03-31T18:29:26;3.67;;;1.30;;
21769;SDS011;11046;49.558;8.674;2023-03-31T18:32:27;5.63;;;1.33;;
21769;SDS011;11046;49.558;8.674;2023-03-31T18:35:35;3.33;;;1.40;;
21769;SDS011;11046;49.558;8.674;2023-03-31T18:38:35;5.03;;;1.30;;
21769;SDS011;11046;49.558;8.674;2023-03-31T18:41:38;6.50;;;1.50;;
21769;SDS011;11046;49.558;8.674;2023-03-31T18:44:50;6.20;;;1.50;;
21769;SDS011;11046;49.558;8.674;2023-03-31T18:47:54;2.80;;;1.40;;
21769;SDS011;11046;49.558;8.674;2023-03-31T18:50:55;3.70;;;1.20;;
21769;SDS011;11046;49.558;8.674;2023-03-31T18:53:59;2.30;;;1.00;;
21769;SDS011;11046;49.558;8.674;2023-03-31T18:57:05;4.23;;;1.37;;
21769;SDS011;11046;49.558;8.674;2023-03-31T19:00:06;3.20;;;1.10;;
21769;SDS011;11046;49.558;8.674;2023-03-31T19:03:11;2.63;;;1.33;;
21769;SDS011;11046;49.558;8.674;2023-03-31T19:06:14;4.13;;;1.20;;
21769;SDS011;11046;49.558;8.674;2023-03-31T19:09:20;6.03;;;1.20;;
21769;SDS011;11046;49.558;8.674;2023-03-31T19:12:23;4.17;;;1.17;;
21769;SDS011;11046;49.558;8.674;2023-03-31T19:15:24;4.87;;;1.10;;
21769;SDS011;11046;49.558;8.674;2023-03-31T19:18:28;3.83;;;1.20;;
21769;SDS011;11046;49.558;8.674;2023-03-31T19:21:30;3.00;;;1.20;;
21769;SDS011;11046;49.558;8.674;2023-03-31T19:24:32;4.23;;;1.10;;
21769;SDS011;11046;49.558;8.674;2023-03-31T19:27:35;2.67;;;0.97;;
21769;SDS011;11046;49.558;8.674;2023-03-31T19:30:39;2.53;;;1.07;;
21769;SDS011;11046;49.558;8.674;2023-03-31T19:33:42;5.53;;;1.20;;
21769;SDS011;11046;49.558;8.674;2023-03-31T19:36:46;5.30;;;1.40;;
21769;SDS011;11046;49.558;8.674;2023-03-31T19:39:57;5.93;;;1.37;;
21769;SDS011;11046;49.558;8.674;2023-03-31T19:43:04;3.87;;;1.20;;
21769;SDS011;11046;49.558;8.674;2023-03-31T19:46:15;3.03;;;1.53;;
21769;SDS011;11046;49.558;8.674;2023-03-31T19:49:15;5.43;;;1.73;;
21769;SDS011;11046;49.558;8.674;2023-03-31T19:52:19;3.77;;;1.23;;
21769;SDS011;11046;49.558;8.674;2023-03-31T19:55:20;3.63;;;1.50;;
21769;SDS011;11046;49.558;8.674;2023-03-31T19:58:20;4.60;;;1.30;;
21769;SDS011;11046;49.558;8.674;2023-03-31T20:01:22;3.87;;;1.37;;
21769;SDS011;11046;49.558;8.674;2023-03-31T20:04:25;6.47;;;1.70;;
21769;SDS011;11046;49.558;8.674;2023-03-31T20:07:25;5.93;;;1.97;;
21769;SDS011;11046;49.558;8.674;2023-03-31T20:10:26;6.70;;;2.00;;
21769;SDS011;11046;49.558;8.674;2023-03-31T20:13:27;4.23;;;1.70;;
21769;SDS011;11046;49.558;8.674;2023-03-31T20:16:28;4.10;;;1.30;;
21769;SDS011;11046;49.558;8.674;2023-03-31T20:19:34;4.43;;;1.40;;
21769;SDS011;11046;49.558;8.674;2023-03-31T20:22:35;6.83;;;1.57;;
21769;SDS011;11046;49.558;8.674;2023-03-31T20:25:36;4.27;;;1.57;;
21769;SDS011;11046;49.558;8.674;2023-03-31T20:28:38;3.63;;;1.33;;
21769;SDS011;11046;49.558;8.674;2023-03-31T20:31:39;4.33;;;1.20;;
21769;SDS011;11046;49.558;8.674;2023-03-31T20:34:41;2.57;;;1.10;;